Mary Holmes, Mississippi
Current Conditions -  °F | °C
As of 2:35 AM on Thursday 18 Dec 2014 (Local Time) from KSTF Reporting Station
Overcast Overcast  
Wind Chill: 39°   Ceiling: 8000
Heat Index: 39°   Visibility: 10mi
Dew Point: 36°   Wind: 3mph
Humidity: 87%   Direction: 30°NNE
Pressure: 30.24"   Gusts: NA
Location:  33.6681°N, 88.7618°W
Report Text: KSTF 180835Z AUTO 03003KT 10SM OVC080 04/02 A3024 RMK AO2
Loading
Personal Weather Stations






























Interactive Weather Map New forecast layout! Learn more

10-Day Weather Forecast

Advertisements
Track Severe Weather on mobile